createdAt,value
2022-07-27T14:05:08.659Z,20.7
2022-07-27T14:06:09.858Z,0
2022-07-27T14:07:14.182Z,0
2022-07-27T14:08:17.339Z,0
2022-07-27T14:09:20.414Z,0
2022-07-27T14:10:23.683Z,0
2022-07-27T14:12:21.131Z,0
2022-07-27T14:13:24.921Z,20.7
2022-07-27T14:14:29.025Z,23.4
2022-07-27T14:15:32.261Z,23.5
2022-07-27T14:16:35.746Z,23.4
2022-07-27T15:58:02.437Z,0
2022-07-27T15:59:16.516Z,20.7
2022-07-27T16:02:27.005Z,20.7
2022-07-27T16:03:32.853Z,22.1
2022-07-27T16:04:36.873Z,22.1
2022-07-27T16:05:39.539Z,22.1
2022-07-27T16:06:42.942Z,22.2
2022-07-27T16:08:08.342Z,20.7
2022-07-27T16:09:13.482Z,22
2022-07-27T16:10:15.954Z,22.3
2022-07-27T16:11:18.860Z,22.6
2022-07-27T16:12:21.226Z,22.7
2022-07-27T16:13:23.534Z,22.9
2022-07-27T16:14:26.451Z,23
2022-07-27T16:15:29.631Z,23.2
2022-07-27T16:16:33.014Z,23.3
2022-07-27T16:31:42.261Z,0
2022-07-27T16:34:50.913Z,0
2022-07-27T16:36:13.953Z,20.7
2022-07-27T16:37:18.083Z,22.4
2022-07-27T16:38:20.986Z,22.5
2022-07-27T16:39:23.552Z,22.5
2022-07-27T16:40:26.746Z,22.3
2022-07-27T16:41:29.645Z,22.2
2022-07-27T16:42:39.341Z,22
2022-07-27T16:43:42.520Z,22
2022-07-27T16:44:45.715Z,21.9
2022-07-27T16:45:49.241Z,22
2022-07-27T16:46:52.509Z,21.9
2022-07-27T16:47:55.143Z,21.8
2022-07-27T16:48:57.710Z,21.9
2022-07-27T16:50:00.847Z,22.1
2022-07-27T16:51:03.983Z,22.2
2022-07-27T16:52:07.146Z,22.4
2022-07-27T16:53:09.770Z,22.5
2022-07-27T16:54:12.866Z,22.5
2022-07-27T16:55:15.555Z,22.6
2022-07-27T16:56:18.140Z,22.5
2022-07-27T16:57:20.779Z,22.5
2022-07-27T16:58:23.689Z,22.5
2022-07-27T16:59:26.534Z,22.5
2022-07-27T17:00:29.247Z,22.4
2022-07-27T17:01:32.773Z,22.4
2022-07-27T17:02:35.662Z,22.5
2022-07-27T17:03:38.835Z,22.5
2022-07-27T17:04:42.019Z,22.5
2022-07-27T17:05:45.253Z,22.3
2022-07-27T17:06:48.176Z,22.4
2022-07-27T17:07:50.802Z,22.4
2022-07-27T17:08:53.374Z,22.3
2022-07-27T17:09:56.285Z,22.4
2022-07-27T17:10:59.351Z,22.2
2022-07-27T17:12:02.827Z,22.1
2022-07-27T17:13:15.436Z,22.2
2022-07-27T17:14:21.682Z,22.3
2022-07-27T17:15:25.471Z,22.5
2022-07-27T17:16:29.107Z,22.5
2022-07-27T17:17:32.366Z,22.5
2022-07-27T17:18:41.901Z,22.5
2022-07-27T17:19:43.853Z,22.5
2022-07-27T17:20:46.497Z,22.5
2022-07-27T17:21:50.068Z,22.5
2022-07-27T17:22:56.318Z,22.5
2022-07-27T17:23:59.223Z,22.3
2022-07-27T17:25:02.403Z,22.4
2022-07-27T17:26:05.463Z,22.3
2022-07-27T17:27:08.492Z,22.4
2022-07-27T17:28:11.339Z,22.2
2022-07-27T17:29:17.027Z,22.3
2022-07-27T17:30:19.817Z,22.2
2022-07-27T17:31:22.981Z,22.2
2022-07-27T17:32:25.728Z,22.3
2022-07-27T17:33:29.208Z,22.2
2022-07-27T17:34:32.396Z,22.3
2022-07-27T17:35:34.747Z,22.4
2022-07-27T17:36:37.670Z,22.4
2022-07-27T17:38:08.335Z,22.3
2022-07-27T17:39:15.251Z,22.4
2022-07-27T17:40:22.080Z,22.4
2022-07-27T17:41:28.551Z,22.2
2022-07-27T17:42:31.732Z,22.2
2022-07-27T17:43:34.293Z,22.2
2022-07-27T17:44:37.197Z,22.3
2022-07-27T17:45:40.375Z,22.4
2022-07-27T17:46:43.556Z,22.3
2022-07-27T17:47:46.536Z,22.4
2022-07-27T17:48:49.618Z,22.5
2022-07-27T17:49:52.286Z,22.5
2022-07-27T17:50:55.194Z,22.4
2022-07-27T17:51:59.060Z,22.4
2022-07-27T17:53:01.966Z,22.4
2022-07-27T17:54:04.520Z,22.3
2022-07-27T17:55:07.072Z,22.4
2022-07-27T17:56:10.041Z,22.3
2022-07-27T17:57:13.002Z,22.2
2022-07-27T17:58:15.908Z,22.2
2022-07-27T17:59:48.794Z,22.2
2022-07-27T18:00:51.910Z,22.2
2022-07-27T18:01:54.994Z,22.1
2022-07-27T18:02:57.961Z,22.1
2022-07-27T18:04:01.324Z,22.1
2022-07-27T18:05:04.356Z,22
2022-07-27T18:06:07.176Z,22
2022-07-27T18:07:10.285Z,21.9
2022-07-27T18:08:12.847Z,21.8
2022-07-27T18:09:17.726Z,21.8
2022-07-27T18:10:21.639Z,21.8
2022-07-27T18:11:24.317Z,21.8
2022-07-27T18:12:27.165Z,21.8
2022-07-27T18:13:40.962Z,21.7
2022-07-27T18:14:44.087Z,21.7
2022-07-27T18:15:47.709Z,21.6
2022-07-27T18:16:50.704Z,21.7
2022-07-27T18:17:53.912Z,21.6
2022-07-27T18:18:56.896Z,21.6
2022-07-27T18:20:00.370Z,21.6
2022-07-27T18:21:03.064Z,21.6
2022-07-27T18:22:05.984Z,21.5
2022-07-27T18:23:09.704Z,21.4
2022-07-27T18:24:12.396Z,21.4
2022-07-27T18:25:14.966Z,21.4
2022-07-27T18:26:17.883Z,21.4
2022-07-27T18:27:21.339Z,21.5
2022-07-27T18:28:23.638Z,21.4
2022-07-27T18:29:26.449Z,21.4
2022-07-27T18:30:29.236Z,21.4
2022-07-27T18:31:32.287Z,21.4
2022-07-27T18:32:35.599Z,21.4
2022-07-27T18:33:39.111Z,21.4
2022-07-27T18:34:41.730Z,21.3
2022-07-27T18:35:44.407Z,21.3
2022-07-27T18:36:47.521Z,21.3
2022-07-27T18:37:50.169Z,21.3
2022-07-27T18:38:52.653Z,21.2
2022-07-27T18:39:55.514Z,21.2
2022-07-27T18:40:58.753Z,21.2
2022-07-27T18:42:01.614Z,21.3
2022-07-27T18:43:05.324Z,21.2
2022-07-27T18:44:08.983Z,21.2
2022-07-27T18:45:12.113Z,21
2022-07-27T18:46:14.860Z,21
2022-07-27T18:47:17.910Z,21
2022-07-27T18:48:21.169Z,20.9
2022-07-27T18:49:24.714Z,20.9
2022-07-27T18:50:27.652Z,20.9
2022-07-27T18:51:30.777Z,20.9
2022-07-27T18:52:33.405Z,20.7
2022-07-27T18:53:36.523Z,20.6
2022-07-27T18:54:39.702Z,20.6
2022-07-27T18:55:42.392Z,20.5
2022-07-27T18:56:45.801Z,20.5
2022-07-27T18:57:48.448Z,20.5
2022-07-27T18:58:51.079Z,20.5
2022-07-27T18:59:53.454Z,20.6
2022-07-27T19:00:56.196Z,20.6
2022-07-27T19:01:59.545Z,20.7
2022-07-27T19:03:02.956Z,20.6
2022-07-27T19:04:09.947Z,20.7
2022-07-27T19:05:42.557Z,20.6
2022-07-27T19:06:50.521Z,20.5
2022-07-27T19:07:56.561Z,20.6
2022-07-27T19:08:59.960Z,20.5
2022-07-27T19:10:02.613Z,20.4
2022-07-27T19:11:05.741Z,20.5
2022-07-27T19:12:11.684Z,20.5
2022-07-27T19:13:14.821Z,20.4
2022-07-27T19:14:17.958Z,20.4
2022-07-27T19:15:20.872Z,20.3
2022-07-27T19:16:24.541Z,20.2
2022-07-27T19:17:28.191Z,20.3
2022-07-27T19:18:31.127Z,20.3
2022-07-27T19:19:34.037Z,20.3
2022-07-27T19:20:36.987Z,20.3
2022-07-27T19:21:40.045Z,20.2
2022-07-27T19:22:42.945Z,20.2
2022-07-27T19:23:46.128Z,20.3
2022-07-27T19:24:56.528Z,20.2
2022-07-27T19:25:59.901Z,20.3
2022-07-27T19:27:03.094Z,20.2
2022-07-27T19:28:05.875Z,20.1
2022-07-27T19:29:08.903Z,20.1
2022-07-27T19:30:12.254Z,20
2022-07-27T19:31:25.050Z,19.9
2022-07-27T19:32:28.188Z,19.9
2022-07-27T19:33:31.428Z,19.9
2022-07-27T19:34:34.338Z,19.7
2022-07-27T19:35:36.686Z,19.8
2022-07-27T19:36:39.533Z,19.7
2022-07-27T19:37:42.106Z,19.6
2022-07-27T19:38:45.025Z,19.6
2022-07-27T19:40:46.761Z,19.6
2022-07-27T19:41:50.147Z,19.4
2022-07-27T19:42:52.846Z,19.3
2022-07-27T19:43:55.689Z,19.4
2022-07-27T19:44:58.604Z,19.2
2022-07-27T19:46:01.795Z,19.2
2022-07-27T19:47:05.007Z,19.2
2022-07-27T19:48:07.981Z,19.2
2022-07-27T19:49:14.995Z,19.2
2022-07-27T19:50:17.806Z,19.3
2022-07-27T19:51:20.094Z,19.2
2022-07-27T19:52:22.945Z,19.2
2022-07-27T19:53:25.858Z,19.3
2022-07-27T19:54:29.322Z,19.2
2022-07-27T19:55:31.457Z,19.2
2022-07-27T19:56:39.145Z,19
2022-07-27T19:57:42.336Z,19
2022-07-27T19:58:45.467Z,18.9
2022-07-27T19:59:58.248Z,18.9
2022-07-27T20:01:01.809Z,19
2022-07-27T20:02:05.560Z,19
2022-07-27T20:03:08.648Z,18.9
2022-07-27T20:04:11.223Z,18.9
2022-07-27T20:05:14.078Z,19
2022-07-27T20:06:17.029Z,18.9
2022-07-27T20:07:22.138Z,18.9
2022-07-27T20:08:24.766Z,19
2022-07-27T20:09:27.683Z,19
2022-07-27T20:10:29.543Z,19
2022-07-27T20:11:32.695Z,19
2022-07-27T20:12:35.328Z,19
2022-07-27T20:13:37.903Z,19
2022-07-27T20:14:41.083Z,19
2022-07-27T20:15:44.014Z,19
2022-07-27T20:16:47.100Z,18.9
2022-07-27T20:17:49.844Z,18.9
2022-07-27T20:18:52.754Z,18.8
2022-07-27T20:19:55.874Z,18.8
2022-07-27T20:20:58.436Z,18.7
2022-07-27T20:22:01.278Z,18.7
2022-07-27T20:23:04.749Z,18.6
2022-07-27T20:24:07.655Z,18.7
2022-07-27T20:25:10.715Z,18.6
2022-07-27T20:26:13.488Z,18.6
2022-07-27T20:27:16.454Z,18.6
2022-07-27T20:28:19.627Z,18.6
2022-07-27T20:29:22.560Z,18.6
2022-07-27T20:30:25.964Z,18.5
2022-07-27T20:31:28.956Z,18.6
2022-07-27T20:32:32.443Z,18.6
2022-07-27T20:33:35.678Z,18.6
2022-07-27T20:34:38.037Z,18.6
2022-07-27T20:35:40.936Z,18.5
2022-07-27T20:36:43.555Z,18.5
2022-07-27T20:37:45.884Z,18.5
2022-07-27T20:38:48.782Z,18.5
2022-07-27T20:39:51.751Z,18.5
2022-07-27T20:40:55.208Z,18.5
2022-07-27T20:41:58.332Z,18.5
2022-07-27T20:43:01.213Z,18.5
2022-07-27T20:44:04.485Z,18.4
2022-07-27T20:45:08.002Z,18.3
2022-07-27T20:46:16.933Z,18.3
2022-07-27T20:47:19.541Z,18.3
2022-07-27T20:48:21.840Z,18.2
2022-07-27T20:49:25.008Z,18.2
2022-07-27T20:50:28.483Z,18.2
2022-07-27T20:51:31.778Z,18.1
2022-07-27T20:52:34.698Z,18
2022-07-27T20:53:37.886Z,18
2022-07-27T20:54:40.514Z,18
2022-07-27T20:55:43.419Z,18
2022-07-27T20:56:46.358Z,18
2022-07-27T20:57:49.288Z,18
2022-07-27T20:58:52.313Z,17.9
2022-07-27T20:59:55.215Z,17.8
2022-07-27T21:00:58.651Z,17.8
2022-07-27T21:02:02.237Z,17.7
2022-07-27T21:03:04.897Z,17.7
2022-07-27T21:04:07.893Z,17.7
2022-07-27T21:05:10.911Z,17.6
2022-07-27T21:06:13.636Z,17.6
2022-07-27T21:07:16.136Z,17.6
2022-07-27T21:08:19.267Z,17.6
2022-07-27T21:09:22.963Z,17.5
2022-07-27T21:10:26.034Z,17.5
2022-07-27T21:11:28.604Z,17.5
2022-07-27T21:12:31.783Z,17.4
2022-07-27T21:13:34.970Z,17.4
2022-07-27T21:14:38.147Z,17.3
2022-07-27T21:15:41.057Z,17.2
2022-07-27T21:16:44.145Z,17.2
2022-07-27T21:17:46.869Z,17.1
2022-07-27T21:18:48.874Z,17.1
2022-07-27T21:19:53.760Z,17.1
2022-07-27T21:20:56.986Z,17.1
2022-07-27T21:22:00.165Z,17
2022-07-27T21:23:03.077Z,17
2022-07-27T21:24:09.118Z,16.9
2022-07-27T21:25:18.267Z,16.9
2022-07-27T21:26:25.361Z,16.9
2022-07-27T21:27:31.532Z,16.8
2022-07-27T21:28:35.479Z,16.8
2022-07-27T21:29:38.840Z,16.7
2022-07-27T21:30:42.054Z,16.6
2022-07-27T21:31:45.632Z,16.6
2022-07-27T21:32:48.415Z,16.6
2022-07-27T21:33:51.663Z,16.5
2022-07-27T21:34:55.237Z,16.5
2022-07-27T21:35:58.138Z,16.5
2022-07-27T21:37:01.602Z,16.4
2022-07-27T21:38:03.827Z,16.4
2022-07-27T21:39:06.736Z,16.4
2022-07-27T21:40:09.365Z,16.3
2022-07-27T21:41:12.214Z,16.3
2022-07-27T21:42:15.395Z,16.3
2022-07-27T21:43:18.299Z,16.3
2022-07-27T21:44:21.471Z,16.2
2022-07-27T21:45:25.116Z,16.1
2022-07-27T21:46:27.998Z,16.1
2022-07-27T21:47:31.340Z,16.1
2022-07-27T21:48:34.619Z,16.1
2022-07-27T21:49:38.116Z,16.1
2022-07-27T21:50:40.749Z,16
2022-07-27T21:51:44.213Z,16
2022-07-27T21:52:47.146Z,16
2022-07-27T21:53:50.062Z,16
2022-07-27T21:54:53.248Z,15.9
2022-07-27T21:55:56.092Z,15.9
2022-07-27T21:56:59.269Z,15.9
2022-07-27T21:58:02.168Z,15.8
2022-07-27T21:59:05.290Z,15.8
2022-07-27T22:00:08.180Z,15.8
2022-07-27T22:01:11.181Z,15.8
2022-07-27T22:02:13.996Z,15.7
2022-07-27T22:03:16.278Z,15.7
2022-07-27T22:04:20.445Z,15.6
2022-07-27T22:05:23.146Z,15.6
2022-07-27T22:06:26.600Z,15.6
2022-07-27T22:07:28.876Z,15.6
2022-07-27T22:08:31.502Z,15.6
2022-07-27T22:09:42.356Z,15.5
2022-07-27T22:10:47.158Z,15.4
2022-07-27T22:11:50.313Z,15.4
2022-07-27T22:12:53.422Z,15.4
2022-07-27T22:13:56.929Z,15.4
2022-07-27T22:15:00.347Z,15.4
2022-07-27T22:16:03.388Z,15.4
2022-07-27T22:17:06.880Z,15.4
2022-07-27T22:18:09.226Z,15.3
2022-07-27T22:19:12.079Z,15.3
2022-07-27T22:20:14.590Z,15.3
2022-07-27T22:21:17.780Z,15.3
2022-07-27T22:22:24.256Z,15.3
2022-07-27T22:23:26.622Z,15.3
2022-07-27T22:24:29.522Z,15.2
2022-07-27T22:25:32.440Z,15.2
2022-07-27T22:26:34.782Z,15.2
2022-07-27T22:27:37.843Z,15.2
2022-07-27T22:28:40.461Z,15.1
2022-07-27T22:29:43.533Z,15.1
2022-07-27T22:31:24.805Z,15
2022-07-27T22:32:28.334Z,15
2022-07-27T22:33:30.330Z,15
2022-07-27T22:34:32.896Z,14.9
2022-07-27T22:35:36.102Z,14.9
2022-07-27T22:36:39.019Z,14.9
2022-07-27T22:37:42.439Z,14.9
2022-07-27T22:38:45.074Z,14.9
2022-07-27T22:39:48.537Z,14.8
2022-07-27T22:40:51.189Z,14.7
2022-07-27T22:41:54.654Z,14.7
2022-07-27T22:42:59.070Z,14.7
2022-07-27T22:44:01.686Z,14.8
2022-07-27T22:45:04.237Z,14.7
2022-07-27T22:46:07.061Z,14.6
2022-07-27T22:47:10.046Z,14.7
2022-07-27T22:48:12.340Z,14.6
2022-07-27T22:49:15.493Z,14.6
2022-07-27T22:50:19.784Z,14.5
2022-07-27T22:51:21.650Z,14.5
2022-07-27T22:52:23.942Z,14.6
2022-07-27T22:53:26.575Z,14.5
2022-07-27T22:54:28.865Z,14.6
2022-07-27T22:55:32.049Z,14.6
2022-07-27T22:56:34.609Z,14.6
2022-07-27T22:57:37.389Z,14.6
2022-07-27T22:58:40.061Z,14.5
2022-07-27T22:59:43.238Z,14.6
2022-07-27T23:00:46.051Z,14.5
2022-07-27T23:01:50.622Z,14.5
2022-07-27T23:02:53.628Z,14.5
2022-07-27T23:03:57.598Z,14.5
2022-07-27T23:05:01.029Z,14.5
2022-07-27T23:06:04.571Z,14.4
2022-07-27T23:07:07.485Z,14.4
2022-07-27T23:08:10.646Z,14.4
2022-07-27T23:09:13.232Z,14.4
2022-07-27T23:10:16.684Z,14.4
2022-07-27T23:11:19.259Z,14.4
2022-07-27T23:12:22.721Z,14.4
2022-07-27T23:13:35.038Z,14.4
2022-07-27T23:14:37.875Z,14.4
2022-07-27T23:15:40.791Z,14.3
2022-07-27T23:16:44.379Z,14.4
2022-07-27T23:17:47.626Z,14.4
2022-07-27T23:18:50.537Z,14.4
2022-07-27T23:19:53.442Z,14.4
2022-07-27T23:20:55.943Z,14.4
2022-07-27T23:22:02.496Z,14.3
2022-07-27T23:23:17.854Z,14.3
2022-07-27T23:24:31.645Z,14.3
2022-07-27T23:25:38.248Z,14.3
2022-07-27T23:26:41.844Z,14.3
2022-07-27T23:27:45.047Z,14.2
2022-07-27T23:28:48.250Z,14.2
2022-07-27T23:29:51.378Z,14.2
2022-07-27T23:30:54.081Z,14.2
2022-07-27T23:31:57.777Z,14.1
2022-07-27T23:33:00.947Z,14.1
2022-07-27T23:34:03.379Z,14.1
2022-07-27T23:35:06.622Z,14.1
2022-07-27T23:36:10.090Z,14.1
2022-07-27T23:37:12.998Z,14.1
2022-07-27T23:38:15.964Z,14.1
2022-07-27T23:39:18.304Z,14.1
2022-07-27T23:40:21.158Z,14
2022-07-27T23:41:24.124Z,14
2022-07-27T23:42:29.097Z,14
2022-07-27T23:43:31.459Z,14
2022-07-27T23:44:34.356Z,13.9
2022-07-27T23:45:37.605Z,13.9
2022-07-27T23:46:41.160Z,13.9
2022-07-27T23:47:47.733Z,13.8
2022-07-27T23:48:50.764Z,13.9
2022-07-27T23:49:54.047Z,13.8
2022-07-27T23:50:56.947Z,13.8
2022-07-27T23:51:59.516Z,13.8
2022-07-27T23:53:02.740Z,13.8
2022-07-27T23:54:05.620Z,13.7
2022-07-27T23:55:08.813Z,13.7
2022-07-27T23:56:11.441Z,13.7
2022-07-27T23:57:14.348Z,13.7
2022-07-27T23:58:17.282Z,13.7
2022-07-27T23:59:20.391Z,13.7
